Ek0 3 — SVAR6 — position and weather

sailwx.info

Track history (hours):
 
Tides and Currents Weather Stations Pressure Air Temp Water Temp Dewpoint Dewpoint Depression Visibility Wind Speed Wind Dir Waves Ship Positions

Ek0 3

Last reported at 2018-Jun-24 13:00 UTC. Time now 2018-Jun-24 13:01 UTC.
Position N 38°01' E 023°34'.

Length 88 m; draft 4.9 m.

Type: Ship. MMSI: 240913000.

Date/timePositionNaut miles runAvg speedWind from/ knotsBaromVisibWave heightAir tempDewpointWater temp
2018-Jun-24 13:00N 38°01' E 023°34'1 2.1
2018-Jun-24 12:30N 38°01' E 023°33'3 5.9
2018-Jun-24 12:01N 37°58' E 023°33'4 7.7
2018-Jun-24 11:30N 37°55' E 023°36'3 5.8
2018-Jun-24 11:00N 37°53' E 023°38'5 9.2
2018-Jun-24 10:30N 37°49' E 023°41'5 9.4
2018-Jun-24 10:00N 37°44' E 023°43'5 9.6
2018-Jun-24 09:30N 37°40' E 023°46'  
2018-Jun-21 16:58N 37°37' E 023°46'4 8.9
2018-Jun-21 16:30N 37°40' E 023°42'4 9.0
2018-Jun-21 16:00N 37°44' E 023°40'4 8.9
2018-Jun-21 15:30N 37°48' E 023°38'4 8.4
2018-Jun-21 15:00N 37°52' E 023°35'4 7.3
2018-Jun-21 14:30N 37°55' E 023°33'0 0.6
2018-Jun-21 13:57N 37°55' E 023°33'0 0.0
2018-Jun-21 13:30N 37°55' E 023°33'0 0.0
2018-Jun-21 12:57N 37°55' E 023°33'0 0.1
2018-Jun-21 12:30N 37°55' E 023°33'0 0.1
2018-Jun-21 12:00N 37°55' E 023°33'0 0.1
2018-Jun-21 11:30N 37°55' E 023°33'0 0.0
2018-Jun-21 11:00N 37°55' E 023°33'0 0.0
2018-Jun-21 10:30N 37°55' E 023°33'0 0.0
2018-Jun-21 10:00N 37°55' E 023°33'0 0.0
2018-Jun-21 09:30N 37°55' E 023°33'0 0.0
2018-Jun-21 09:00N 37°55' E 023°33'0 0.0
2018-Jun-21 08:30N 37°55' E 023°33'0 0.1
2018-Jun-21 07:57N 37°55' E 023°33'1 2.8
2018-Jun-21 07:31N 37°56' E 023°35'3 6.3
2018-Jun-21 07:00N 37°59' E 023°33'3 5.4
2018-Jun-21 06:30N 38°01' E 023°31'0 0.1
2018-Jun-21 05:56N 38°01' E 023°31'0 0.0
2018-Jun-21 05:29N 38°01' E 023°31'0 0.0
2018-Jun-21 04:59N 38°01' E 023°31'0 0.0
2018-Jun-21 04:29N 38°01' E 023°31'0 0.0
2018-Jun-21 03:59N 38°01' E 023°31'0 0.0
2018-Jun-21 03:29N 38°01' E 023°31'0 0.0
2018-Jun-21 02:59N 38°01' E 023°31'0 0.0
2018-Jun-21 02:29N 38°01' E 023°31'0 0.0
2018-Jun-21 01:59N 38°01' E 023°31'0 0.0
2018-Jun-21 01:29N 38°01' E 023°31'0 0.0
2018-Jun-21 00:59N 38°01' E 023°31'0 0.0
2018-Jun-21 00:29N 38°01' E 023°31'0 0.1
2018-Jun-20 23:59N 38°01' E 023°31'0 0.0
2018-Jun-20 23:23N 38°01' E 023°31'0 0.0
2018-Jun-20 22:50N 38°01' E 023°31'0 0.0
2018-Jun-20 22:20N 38°01' E 023°31'0 0.0
2018-Jun-20 21:59N 38°01' E 023°31'0 0.0
2018-Jun-20 21:26N 38°01' E 023°31'0 0.0
2018-Jun-20 20:59N 38°01' E 023°31'0 0.0
2018-Jun-20 20:23N 38°01' E 023°31'0 0.0
2018-Jun-20 19:56N 38°01' E 023°31'0 0.1
2018-Jun-20 19:29N 38°01' E 023°31'0 0.0
2018-Jun-20 18:59N 38°01' E 023°31'0 0.1
2018-Jun-20 18:29N 38°01' E 023°31'0 0.0
2018-Jun-20 17:56N 38°01' E 023°31'0 0.1
2018-Jun-20 17:29N 38°01' E 023°31'1 2.1
2018-Jun-20 17:01N 38°01' E 023°32'3 5.0
2018-Jun-20 16:30N 38°02' E 023°35'0 0.0
2018-Jun-20 02:53N 38°02' E 023°36'0 0.0
2018-Jun-20 02:30N 38°02' E 023°36'0 0.0
2018-Jun-20 02:00N 38°02' E 023°36'0 1.0
2018-Jun-20 01:31N 38°01' E 023°35'1 1.1
2018-Jun-20 01:00N 38°01' E 023°35'3 5.9
2018-Jun-20 00:31N 38°01' E 023°31'1 1.1
2018-Jun-20 00:00N 38°02' E 023°31'0 0.0
2018-Jun-19 23:30N 38°02' E 023°31'0 0.0
2018-Jun-19 23:00N 38°02' E 023°31'0 0.0
2018-Jun-19 22:30N 38°02' E 023°31'0 0.0
2018-Jun-19 22:01N 38°02' E 023°31'0 0.0
2018-Jun-19 21:30N 38°02' E 023°31'0 0.0
2018-Jun-19 21:00N 38°02' E 023°31'0 0.0
2018-Jun-19 20:30N 38°02' E 023°31'0 0.0
2018-Jun-19 20:00N 38°02' E 023°31'0 0.0
2018-Jun-19 19:31N 38°02' E 023°31'0 0.0
2018-Jun-19 19:00N 38°02' E 023°31'0 0.0
2018-Jun-19 18:30N 38°02' E 023°31'0 0.0
2018-Jun-19 18:00N 38°02' E 023°31'0 0.0
2018-Jun-19 17:30N 38°02' E 023°31'0 0.0
2018-Jun-19 17:00N 38°02' E 023°31'0 0.0
2018-Jun-19 16:30N 38°02' E 023°31'0 0.0
2018-Jun-19 16:00N 38°02' E 023°31'1 1.6
2018-Jun-19 15:30N 38°01' E 023°32'4 7.7
2018-Jun-19 15:01N 37°57' E 023°33'3 5.2
2018-Jun-19 14:30N 37°56' E 023°36'1 2.9
2018-Jun-19 14:01N 37°54' E 023°36'1 1.4
2018-Jun-19 13:31N 37°54' E 023°35'0 0.7
2018-Jun-19 13:00N 37°54' E 023°36'0 0.4
2018-Jun-19 12:31N 37°54' E 023°36'0 0.9
2018-Jun-19 12:00N 37°53' E 023°36'1 1.5
2018-Jun-19 11:31N 37°54' E 023°37'4 7.3
2018-Jun-19 11:00N 37°50' E 023°39'4 8.9
2018-Jun-19 10:31N 37°46' E 023°42'5 9.1
2018-Jun-19 10:00N 37°42' E 023°45'5 9.2
2018-Jun-19 09:30N 37°39' E 023°48'  
2018-Jun-15 20:22N 37°45' E 023°39'3 9.4
2018-Jun-15 20:00N 37°48' E 023°38'5 9.2
2018-Jun-15 19:30N 37°53' E 023°36'4 8.4
2018-Jun-15 19:00N 37°57' E 023°35'4 7.3
2018-Jun-15 18:31N 37°60' E 023°33'2 4.0
2018-Jun-15 17:59N 38°01' E 023°31'0 0.1
2018-Jun-15 17:26N 38°02' E 023°31'0 0.0
2018-Jun-15 16:56N 38°02' E 023°31'0 0.1
2018-Jun-15 16:29N 38°01' E 023°31'0 0.0
2018-Jun-15 15:59N 38°02' E 023°31'0 0.0
2018-Jun-15 15:29N 38°02' E 023°31'0 0.0
2018-Jun-15 14:59N 38°02' E 023°31'0 0.1
2018-Jun-15 14:29N 38°02' E 023°31'0 0.0
2018-Jun-15 13:59N 38°02' E 023°31'0 0.0
2018-Jun-15 13:26N 38°02' E 023°31'0 0.0
2018-Jun-15 12:56N 38°02' E 023°31'0 0.0
2018-Jun-15 12:29N 38°02' E 023°31'0 0.0
2018-Jun-15 11:59N 38°02' E 023°31'0 0.0
2018-Jun-15 11:26N 38°02' E 023°31'0 0.0
2018-Jun-15 10:59N 38°02' E 023°31'0 0.0
2018-Jun-15 10:29N 38°02' E 023°31'0 0.0
2018-Jun-15 09:59N 38°02' E 023°31'0 0.0
2018-Jun-15 09:29N 38°02' E 023°31'0 0.0
2018-Jun-15 08:56N 38°02' E 023°31'0 0.0
2018-Jun-15 08:29N 38°02' E 023°31'0 0.1
2018-Jun-15 07:59N 38°01' E 023°31'0 0.1
2018-Jun-15 07:29N 38°02' E 023°31'0 0.1
2018-Jun-15 06:59N 38°02' E 023°31'0 0.1
2018-Jun-15 06:29N 38°02' E 023°31'1 1.5
2018-Jun-15 06:00N 38°01' E 023°32'3 0.3
2018-Jun-14 20:59N 38°02' E 023°36'1 1.5
2018-Jun-14 20:29N 38°01' E 023°35'0 0.0
2018-Jun-14 19:59N 38°01' E 023°35'0 0.1
2018-Jun-14 19:29N 38°01' E 023°35'0 0.3
2018-Jun-14 18:59N 38°01' E 023°35'3 5.8
2018-Jun-14 18:31N 38°01' E 023°31'  
Track history (hours):
 
Tides and Currents Weather Stations Pressure Air Temp Water Temp Dewpoint Dewpoint Depression Visibility Wind Speed Wind Dir Waves Ship Positions

Ek0 3

Last reported at 2018-Jun-24 13:00 UTC. Time now 2018-Jun-24 13:01 UTC.
Position N 38°01' E 023°34'.

Length 88 m; draft 4.9 m.

Type: Ship. MMSI: 240913000.

Date/timePositionNaut miles runAvg speedWind from/ knotsBaromVisibWave heightAir tempDewpointWater temp
2018-Jun-24 13:00N 38°01' E 023°34'1 2.1
2018-Jun-24 12:30N 38°01' E 023°33'3 5.9
2018-Jun-24 12:01N 37°58' E 023°33'4 7.7
2018-Jun-24 11:30N 37°55' E 023°36'3 5.8
2018-Jun-24 11:00N 37°53' E 023°38'5 9.2
2018-Jun-24 10:30N 37°49' E 023°41'5 9.4
2018-Jun-24 10:00N 37°44' E 023°43'5 9.6
2018-Jun-24 09:30N 37°40' E 023°46'  
2018-Jun-21 16:58N 37°37' E 023°46'4 8.9
2018-Jun-21 16:30N 37°40' E 023°42'4 9.0
2018-Jun-21 16:00N 37°44' E 023°40'4 8.9
2018-Jun-21 15:30N 37°48' E 023°38'4 8.4
2018-Jun-21 15:00N 37°52' E 023°35'4 7.3
2018-Jun-21 14:30N 37°55' E 023°33'0 0.6
2018-Jun-21 13:57N 37°55' E 023°33'0 0.0
2018-Jun-21 13:30N 37°55' E 023°33'0 0.0
2018-Jun-21 12:57N 37°55' E 023°33'0 0.1
2018-Jun-21 12:30N 37°55' E 023°33'0 0.1
2018-Jun-21 12:00N 37°55' E 023°33'0 0.1
2018-Jun-21 11:30N 37°55' E 023°33'0 0.0
2018-Jun-21 11:00N 37°55' E 023°33'0 0.0
2018-Jun-21 10:30N 37°55' E 023°33'0 0.0
2018-Jun-21 10:00N 37°55' E 023°33'0 0.0
2018-Jun-21 09:30N 37°55' E 023°33'0 0.0
2018-Jun-21 09:00N 37°55' E 023°33'0 0.0
2018-Jun-21 08:30N 37°55' E 023°33'0 0.1
2018-Jun-21 07:57N 37°55' E 023°33'1 2.8
2018-Jun-21 07:31N 37°56' E 023°35'3 6.3
2018-Jun-21 07:00N 37°59' E 023°33'3 5.4
2018-Jun-21 06:30N 38°01' E 023°31'0 0.1
2018-Jun-21 05:56N 38°01' E 023°31'0 0.0
2018-Jun-21 05:29N 38°01' E 023°31'0 0.0
2018-Jun-21 04:59N 38°01' E 023°31'0 0.0
2018-Jun-21 04:29N 38°01' E 023°31'0 0.0
2018-Jun-21 03:59N 38°01' E 023°31'0 0.0
2018-Jun-21 03:29N 38°01' E 023°31'0 0.0
2018-Jun-21 02:59N 38°01' E 023°31'0 0.0
2018-Jun-21 02:29N 38°01' E 023°31'0 0.0
2018-Jun-21 01:59N 38°01' E 023°31'0 0.0
2018-Jun-21 01:29N 38°01' E 023°31'0 0.0
2018-Jun-21 00:59N 38°01' E 023°31'0 0.0
2018-Jun-21 00:29N 38°01' E 023°31'0 0.1
2018-Jun-20 23:59N 38°01' E 023°31'0 0.0
2018-Jun-20 23:23N 38°01' E 023°31'0 0.0
2018-Jun-20 22:50N 38°01' E 023°31'0 0.0
2018-Jun-20 22:20N 38°01' E 023°31'0 0.0
2018-Jun-20 21:59N 38°01' E 023°31'0 0.0
2018-Jun-20 21:26N 38°01' E 023°31'0 0.0
2018-Jun-20 20:59N 38°01' E 023°31'0 0.0
2018-Jun-20 20:23N 38°01' E 023°31'0 0.0
2018-Jun-20 19:56N 38°01' E 023°31'0 0.1
2018-Jun-20 19:29N 38°01' E 023°31'0 0.0
2018-Jun-20 18:59N 38°01' E 023°31'0 0.1
2018-Jun-20 18:29N 38°01' E 023°31'0 0.0
2018-Jun-20 17:56N 38°01' E 023°31'0 0.1
2018-Jun-20 17:29N 38°01' E 023°31'1 2.1
2018-Jun-20 17:01N 38°01' E 023°32'3 5.0
2018-Jun-20 16:30N 38°02' E 023°35'0 0.0
2018-Jun-20 02:53N 38°02' E 023°36'0 0.0
2018-Jun-20 02:30N 38°02' E 023°36'0 0.0
2018-Jun-20 02:00N 38°02' E 023°36'0 1.0
2018-Jun-20 01:31N 38°01' E 023°35'1 1.1
2018-Jun-20 01:00N 38°01' E 023°35'3 5.9
2018-Jun-20 00:31N 38°01' E 023°31'1 1.1
2018-Jun-20 00:00N 38°02' E 023°31'0 0.0
2018-Jun-19 23:30N 38°02' E 023°31'0 0.0
2018-Jun-19 23:00N 38°02' E 023°31'0 0.0
2018-Jun-19 22:30N 38°02' E 023°31'0 0.0
2018-Jun-19 22:01N 38°02' E 023°31'0 0.0
2018-Jun-19 21:30N 38°02' E 023°31'0 0.0
2018-Jun-19 21:00N 38°02' E 023°31'0 0.0
2018-Jun-19 20:30N 38°02' E 023°31'0 0.0
2018-Jun-19 20:00N 38°02' E 023°31'0 0.0
2018-Jun-19 19:31N 38°02' E 023°31'0 0.0
2018-Jun-19 19:00N 38°02' E 023°31'0 0.0
2018-Jun-19 18:30N 38°02' E 023°31'0 0.0
2018-Jun-19 18:00N 38°02' E 023°31'0 0.0
2018-Jun-19 17:30N 38°02' E 023°31'0 0.0
2018-Jun-19 17:00N 38°02' E 023°31'0 0.0
2018-Jun-19 16:30N 38°02' E 023°31'0 0.0
2018-Jun-19 16:00N 38°02' E 023°31'1 1.6
2018-Jun-19 15:30N 38°01' E 023°32'4 7.7
2018-Jun-19 15:01N 37°57' E 023°33'3 5.2
2018-Jun-19 14:30N 37°56' E 023°36'1 2.9
2018-Jun-19 14:01N 37°54' E 023°36'1 1.4
2018-Jun-19 13:31N 37°54' E 023°35'0 0.7
2018-Jun-19 13:00N 37°54' E 023°36'0 0.4
2018-Jun-19 12:31N 37°54' E 023°36'0 0.9
2018-Jun-19 12:00N 37°53' E 023°36'1 1.5
2018-Jun-19 11:31N 37°54' E 023°37'4 7.3
2018-Jun-19 11:00N 37°50' E 023°39'4 8.9
2018-Jun-19 10:31N 37°46' E 023°42'5 9.1
2018-Jun-19 10:00N 37°42' E 023°45'5 9.2
2018-Jun-19 09:30N 37°39' E 023°48'  
2018-Jun-15 20:22N 37°45' E 023°39'3 9.4
2018-Jun-15 20:00N 37°48' E 023°38'5 9.2
2018-Jun-15 19:30N 37°53' E 023°36'4 8.4
2018-Jun-15 19:00N 37°57' E 023°35'4 7.3
2018-Jun-15 18:31N 37°60' E 023°33'2 4.0
2018-Jun-15 17:59N 38°01' E 023°31'0 0.1
2018-Jun-15 17:26N 38°02' E 023°31'0 0.0
2018-Jun-15 16:56N 38°02' E 023°31'0 0.1
2018-Jun-15 16:29N 38°01' E 023°31'0 0.0
2018-Jun-15 15:59N 38°02' E 023°31'0 0.0
2018-Jun-15 15:29N 38°02' E 023°31'0 0.0
2018-Jun-15 14:59N 38°02' E 023°31'0 0.1
2018-Jun-15 14:29N 38°02' E 023°31'0 0.0
2018-Jun-15 13:59N 38°02' E 023°31'0 0.0
2018-Jun-15 13:26N 38°02' E 023°31'0 0.0
2018-Jun-15 12:56N 38°02' E 023°31'0 0.0
2018-Jun-15 12:29N 38°02' E 023°31'0 0.0
2018-Jun-15 11:59N 38°02' E 023°31'0 0.0
2018-Jun-15 11:26N 38°02' E 023°31'0 0.0
2018-Jun-15 10:59N 38°02' E 023°31'0 0.0
2018-Jun-15 10:29N 38°02' E 023°31'0 0.0
2018-Jun-15 09:59N 38°02' E 023°31'0 0.0
2018-Jun-15 09:29N 38°02' E 023°31'0 0.0
2018-Jun-15 08:56N 38°02' E 023°31'0 0.0
2018-Jun-15 08:29N 38°02' E 023°31'0 0.1
2018-Jun-15 07:59N 38°01' E 023°31'0 0.1
2018-Jun-15 07:29N 38°02' E 023°31'0 0.1
2018-Jun-15 06:59N 38°02' E 023°31'0 0.1
2018-Jun-15 06:29N 38°02' E 023°31'1 1.5
2018-Jun-15 06:00N 38°01' E 023°32'3 0.3
2018-Jun-14 20:59N 38°02' E 023°36'1 1.5
2018-Jun-14 20:29N 38°01' E 023°35'0 0.0
2018-Jun-14 19:59N 38°01' E 023°35'0 0.1
2018-Jun-14 19:29N 38°01' E 023°35'0 0.3
2018-Jun-14 18:59N 38°01' E 023°35'3 5.8
2018-Jun-14 18:31N 38°01' E 023°31'  

Dump ship's entire track history